<?xml version="1.0" encoding="UTF-8" standalone="no" ?>
<gpx xmlns="http://www.topografix.com/GPX/1/1" xmlns:xsi="http://www.w3.org/2001/XMLSchema-instance" xsi:schemaLocation="http://www.topografix.com/GPX/1/1 http://www.topografix.com/GPX/1/1/gpx.xsd" version="1.1" creator="VisuGPX - https://www.visugpx.com">
  <metadata>
    <name>St eulalie-st laurent classic</name>
    <desc><![CDATA[Ma boucle d\'entrainement classic, une belle montée qui court tout le long]]></desc>
  </metadata>
  <trk>
    <name><![CDATA[bouclette en royans]]></name>
    <trkseg>
      <trkpt lat="45.05443" lon="5.34248">
        <ele>247.60000610352</ele>
        <time>2010-11-04T14:23:48.000Z</time>
      </trkpt>
      <trkpt lat="45.05434" lon="5.34227">
        <ele>249.60000610352</ele>
        <time>2010-11-04T14:23:59.000Z</time>
      </trkpt>
      <trkpt lat="45.05401" lon="5.34223">
        <ele>247.60000610352</ele>
        <time>2010-11-04T14:24:12.000Z</time>
      </trkpt>
      <trkpt lat="45.05368" lon="5.34234">
        <ele>250.39999389648</ele>
        <time>2010-11-04T14:24:25.000Z</time>
      </trkpt>
      <trkpt lat="45.0534" lon="5.34249">
        <ele>250</ele>
        <time>2010-11-04T14:24:37.000Z</time>
      </trkpt>
      <trkpt lat="45.05316" lon="5.34264">
        <ele>252</ele>
        <time>2010-11-04T14:24:48.000Z</time>
      </trkpt>
      <trkpt lat="45.05288" lon="5.34282">
        <ele>257.20001220703</ele>
        <time>2010-11-04T14:25:00.000Z</time>
      </trkpt>
      <trkpt lat="45.05251" lon="5.34296">
        <ele>255.80000305176</ele>
        <time>2010-11-04T14:25:14.000Z</time>
      </trkpt>
      <trkpt lat="45.05216" lon="5.34297">
        <ele>257.20001220703</ele>
        <time>2010-11-04T14:25:27.000Z</time>
      </trkpt>
      <trkpt lat="45.05188" lon="5.34279">
        <ele>258.60000610352</ele>
        <time>2010-11-04T14:25:40.000Z</time>
      </trkpt>
      <trkpt lat="45.05175" lon="5.34264">
        <ele>258.60000610352</ele>
        <time>2010-11-04T14:25:47.000Z</time>
      </trkpt>
      <trkpt lat="45.05164" lon="5.34257">
        <ele>261</ele>
        <time>2010-11-04T14:25:52.000Z</time>
      </trkpt>
      <trkpt lat="45.05131" lon="5.34245">
        <ele>266.79998779297</ele>
        <time>2010-11-04T14:26:07.000Z</time>
      </trkpt>
      <trkpt lat="45.05098" lon="5.34247">
        <ele>270.60000610352</ele>
        <time>2010-11-04T14:26:23.000Z</time>
      </trkpt>
      <trkpt lat="45.05067" lon="5.34243">
        <ele>268.20001220703</ele>
        <time>2010-11-04T14:26:35.000Z</time>
      </trkpt>
      <trkpt lat="45.05025" lon="5.34251">
        <ele>269.20001220703</ele>
        <time>2010-11-04T14:26:51.000Z</time>
      </trkpt>
      <trkpt lat="45.04995" lon="5.34256">
        <ele>268.79998779297</ele>
        <time>2010-11-04T14:27:02.000Z</time>
      </trkpt>
      <trkpt lat="45.04964" lon="5.34269">
        <ele>269.60000610352</ele>
        <time>2010-11-04T14:27:15.000Z</time>
      </trkpt>
      <trkpt lat="45.04931" lon="5.34296">
        <ele>271.20001220703</ele>
        <time>2010-11-04T14:27:29.000Z</time>
      </trkpt>
      <trkpt lat="45.0491" lon="5.34319">
        <ele>271.20001220703</ele>
        <time>2010-11-04T14:27:40.000Z</time>
      </trkpt>
      <trkpt lat="45.04883" lon="5.34348">
        <ele>274.39999389648</ele>
        <time>2010-11-04T14:27:55.000Z</time>
      </trkpt>
      <trkpt lat="45.04866" lon="5.34358">
        <ele>273.60000610352</ele>
        <time>2010-11-04T14:28:39.000Z</time>
      </trkpt>
      <trkpt lat="45.04839" lon="5.34369">
        <ele>273</ele>
        <time>2010-11-04T14:28:50.000Z</time>
      </trkpt>
      <trkpt lat="45.04802" lon="5.34363">
        <ele>276.39999389648</ele>
        <time>2010-11-04T14:29:03.000Z</time>
      </trkpt>
      <trkpt lat="45.04767" lon="5.34348">
        <ele>278.79998779297</ele>
        <time>2010-11-04T14:29:17.000Z</time>
      </trkpt>
      <trkpt lat="45.04751" lon="5.34341">
        <ele>280.79998779297</ele>
        <time>2010-11-04T14:29:25.000Z</time>
      </trkpt>
      <trkpt lat="45.04735" lon="5.34364">
        <ele>286.60000610352</ele>
        <time>2010-11-04T14:29:38.000Z</time>
      </trkpt>
      <trkpt lat="45.04718" lon="5.34383">
        <ele>291.79998779297</ele>
        <time>2010-11-04T14:29:49.000Z</time>
      </trkpt>
      <trkpt lat="45.04706" lon="5.34407">
        <ele>303.39999389648</ele>
        <time>2010-11-04T14:30:03.000Z</time>
      </trkpt>
      <trkpt lat="45.04699" lon="5.34412">
        <ele>301.79998779297</ele>
        <time>2010-11-04T14:30:06.000Z</time>
      </trkpt>
      <trkpt lat="45.04663" lon="5.34393">
        <ele>297</ele>
        <time>2010-11-04T14:30:22.000Z</time>
      </trkpt>
      <trkpt lat="45.04655" lon="5.34382">
        <ele>299</ele>
        <time>2010-11-04T14:30:27.000Z</time>
      </trkpt>
      <trkpt lat="45.04637" lon="5.34397">
        <ele>299.39999389648</ele>
        <time>2010-11-04T14:30:39.000Z</time>
      </trkpt>
      <trkpt lat="45.04629" lon="5.3444">
        <ele>306.60000610352</ele>
        <time>2010-11-04T14:30:52.000Z</time>
      </trkpt>
      <trkpt lat="45.04617" lon="5.34474">
        <ele>313</ele>
        <time>2010-11-04T14:31:04.000Z</time>
      </trkpt>
      <trkpt lat="45.04582" lon="5.34465">
        <ele>313</ele>
        <time>2010-11-04T14:31:17.000Z</time>
      </trkpt>
      <trkpt lat="45.04563" lon="5.34456">
        <ele>311.60000610352</ele>
        <time>2010-11-04T14:31:27.000Z</time>
      </trkpt>
      <trkpt lat="45.0453" lon="5.34437">
        <ele>309.60000610352</ele>
        <time>2010-11-04T14:31:41.000Z</time>
      </trkpt>
      <trkpt lat="45.04494" lon="5.3442">
        <ele>312</ele>
        <time>2010-11-04T14:31:57.000Z</time>
      </trkpt>
      <trkpt lat="45.0446" lon="5.34402">
        <ele>315.79998779297</ele>
        <time>2010-11-04T14:32:12.000Z</time>
      </trkpt>
      <trkpt lat="45.04427" lon="5.34387">
        <ele>317.79998779297</ele>
        <time>2010-11-04T14:32:27.000Z</time>
      </trkpt>
      <trkpt lat="45.04393" lon="5.34369">
        <ele>320.60000610352</ele>
        <time>2010-11-04T14:32:43.000Z</time>
      </trkpt>
      <trkpt lat="45.04355" lon="5.34348">
        <ele>324.39999389648</ele>
        <time>2010-11-04T14:33:00.000Z</time>
      </trkpt>
      <trkpt lat="45.04322" lon="5.34338">
        <ele>329.20001220703</ele>
        <time>2010-11-04T14:33:15.000Z</time>
      </trkpt>
      <trkpt lat="45.04285" lon="5.34333">
        <ele>331.60000610352</ele>
        <time>2010-11-04T14:33:31.000Z</time>
      </trkpt>
      <trkpt lat="45.04261" lon="5.34334">
        <ele>330.20001220703</ele>
        <time>2010-11-04T14:33:44.000Z</time>
      </trkpt>
      <trkpt lat="45.0425" lon="5.34333">
        <ele>332.20001220703</ele>
        <time>2010-11-04T14:33:50.000Z</time>
      </trkpt>
      <trkpt lat="45.04217" lon="5.3433">
        <ele>337</ele>
        <time>2010-11-04T14:34:05.000Z</time>
      </trkpt>
      <trkpt lat="45.04186" lon="5.34332">
        <ele>334.60000610352</ele>
        <time>2010-11-04T14:34:19.000Z</time>
      </trkpt>
      <trkpt lat="45.04159" lon="5.3433">
        <ele>339</ele>
        <time>2010-11-04T14:34:31.000Z</time>
      </trkpt>
      <trkpt lat="45.04127" lon="5.34311">
        <ele>344.20001220703</ele>
        <time>2010-11-04T14:34:46.000Z</time>
      </trkpt>
      <trkpt lat="45.04101" lon="5.3429">
        <ele>346.60000610352</ele>
        <time>2010-11-04T14:34:58.000Z</time>
      </trkpt>
      <trkpt lat="45.0407" lon="5.34293">
        <ele>348.60000610352</ele>
        <time>2010-11-04T14:35:12.000Z</time>
      </trkpt>
      <trkpt lat="45.04037" lon="5.34284">
        <ele>351</ele>
        <time>2010-11-04T14:35:25.000Z</time>
      </trkpt>
      <trkpt lat="45.04016" lon="5.34263">
        <ele>351.79998779297</ele>
        <time>2010-11-04T14:35:35.000Z</time>
      </trkpt>
      <trkpt lat="45.03996" lon="5.34243">
        <ele>358.20001220703</ele>
        <time>2010-11-04T14:35:45.000Z</time>
      </trkpt>
      <trkpt lat="45.03966" lon="5.34227">
        <ele>353.79998779297</ele>
        <time>2010-11-04T14:35:56.000Z</time>
      </trkpt>
      <trkpt lat="45.03927" lon="5.34228">
        <ele>343.20001220703</ele>
        <time>2010-11-04T14:36:07.000Z</time>
      </trkpt>
      <trkpt lat="45.03897" lon="5.34223">
        <ele>342.20001220703</ele>
        <time>2010-11-04T14:36:18.000Z</time>
      </trkpt>
      <trkpt lat="45.03865" lon="5.34222">
        <ele>340.79998779297</ele>
        <time>2010-11-04T14:36:30.000Z</time>
      </trkpt>
      <trkpt lat="45.03826" lon="5.34207">
        <ele>340.79998779297</ele>
        <time>2010-11-04T14:36:44.000Z</time>
      </trkpt>
      <trkpt lat="45.03792" lon="5.34192">
        <ele>339.79998779297</ele>
        <time>2010-11-04T14:36:57.000Z</time>
      </trkpt>
      <trkpt lat="45.03778" lon="5.34187">
        <ele>339.79998779297</ele>
        <time>2010-11-04T14:37:04.000Z</time>
      </trkpt>
      <trkpt lat="45.03761" lon="5.34196">
        <ele>348</ele>
        <time>2010-11-04T14:37:15.000Z</time>
      </trkpt>
      <trkpt lat="45.03757" lon="5.34197">
        <ele>350.39999389648</ele>
        <time>2010-11-04T14:37:18.000Z</time>
      </trkpt>
      <trkpt lat="45.03737" lon="5.34192">
        <ele>357.60000610352</ele>
        <time>2010-11-04T14:37:29.000Z</time>
      </trkpt>
      <trkpt lat="45.03712" lon="5.34188">
        <ele>352.79998779297</ele>
        <time>2010-11-04T14:37:39.000Z</time>
      </trkpt>
      <trkpt lat="45.03678" lon="5.34191">
        <ele>347.60000610352</ele>
        <time>2010-11-04T14:37:51.000Z</time>
      </trkpt>
      <trkpt lat="45.0364" lon="5.342">
        <ele>344.60000610352</ele>
        <time>2010-11-04T14:38:04.000Z</time>
      </trkpt>
      <trkpt lat="45.03601" lon="5.342">
        <ele>343.20001220703</ele>
        <time>2010-11-04T14:38:17.000Z</time>
      </trkpt>
      <trkpt lat="45.03557" lon="5.34193">
        <ele>346.20001220703</ele>
        <time>2010-11-04T14:38:32.000Z</time>
      </trkpt>
      <trkpt lat="45.03518" lon="5.34185">
        <ele>346.20001220703</ele>
        <time>2010-11-04T14:38:44.000Z</time>
      </trkpt>
      <trkpt lat="45.03509" lon="5.34185">
        <ele>348.60000610352</ele>
        <time>2010-11-04T14:38:48.000Z</time>
      </trkpt>
      <trkpt lat="45.03492" lon="5.34172">
        <ele>350</ele>
        <time>2010-11-04T14:38:56.000Z</time>
      </trkpt>
      <trkpt lat="45.03474" lon="5.34169">
        <ele>351</ele>
        <time>2010-11-04T14:39:03.000Z</time>
      </trkpt>
      <trkpt lat="45.03469" lon="5.34172">
        <ele>353.39999389648</ele>
        <time>2010-11-04T14:39:08.000Z</time>
      </trkpt>
      <trkpt lat="45.03471" lon="5.34185">
        <ele>357.20001220703</ele>
        <time>2010-11-04T14:39:15.000Z</time>
      </trkpt>
      <trkpt lat="45.0347" lon="5.34192">
        <ele>359</ele>
        <time>2010-11-04T14:39:19.000Z</time>
      </trkpt>
      <trkpt lat="45.03469" lon="5.34204">
        <ele>362</ele>
        <time>2010-11-04T14:39:26.000Z</time>
      </trkpt>
      <trkpt lat="45.03469" lon="5.34207">
        <ele>362.39999389648</ele>
        <time>2010-11-04T14:39:28.000Z</time>
      </trkpt>
      <trkpt lat="45.03469" lon="5.34213">
        <ele>363.39999389648</ele>
        <time>2010-11-04T14:39:31.000Z</time>
      </trkpt>
      <trkpt lat="45.03468" lon="5.34222">
        <ele>365.79998779297</ele>
        <time>2010-11-04T14:39:36.000Z</time>
      </trkpt>
      <trkpt lat="45.03465" lon="5.34245">
        <ele>370.60000610352</ele>
        <time>2010-11-04T14:39:50.000Z</time>
      </trkpt>
      <trkpt lat="45.03465" lon="5.34276">
        <ele>379.79998779297</ele>
        <time>2010-11-04T14:40:11.000Z</time>
      </trkpt>
      <trkpt lat="45.03463" lon="5.34287">
        <ele>384</ele>
        <time>2010-11-04T14:40:19.000Z</time>
      </trkpt>
      <trkpt lat="45.03456" lon="5.34307">
        <ele>388</ele>
        <time>2010-11-04T14:40:31.000Z</time>
      </trkpt>
      <trkpt lat="45.03453" lon="5.34313">
        <ele>390.79998779297</ele>
        <time>2010-11-04T14:40:36.000Z</time>
      </trkpt>
      <trkpt lat="45.03436" lon="5.34299">
        <ele>395.60000610352</ele>
        <time>2010-11-04T14:40:45.000Z</time>
      </trkpt>
      <trkpt lat="45.03422" lon="5.34286">
        <ele>400.39999389648</ele>
        <time>2010-11-04T14:40:53.000Z</time>
      </trkpt>
      <trkpt lat="45.0341" lon="5.34279">
        <ele>401</ele>
        <time>2010-11-04T14:40:58.000Z</time>
      </trkpt>
      <trkpt lat="45.03396" lon="5.34257">
        <ele>401.39999389648</ele>
        <time>2010-11-04T14:41:08.000Z</time>
      </trkpt>
      <trkpt lat="45.0338" lon="5.34237">
        <ele>402.39999389648</ele>
        <time>2010-11-04T14:41:20.000Z</time>
      </trkpt>
      <trkpt lat="45.03347" lon="5.34203">
        <ele>395.20001220703</ele>
        <time>2010-11-04T14:41:31.000Z</time>
      </trkpt>
      <trkpt lat="45.03339" lon="5.34191">
        <ele>395.60000610352</ele>
        <time>2010-11-04T14:41:35.000Z</time>
      </trkpt>
      <trkpt lat="45.03319" lon="5.34148">
        <ele>390.39999389648</ele>
        <time>2010-11-04T14:41:46.000Z</time>
      </trkpt>
      <trkpt lat="45.03298" lon="5.34093">
        <ele>387.39999389648</ele>
        <time>2010-11-04T14:41:58.000Z</time>
      </trkpt>
      <trkpt lat="45.03281" lon="5.34071">
        <ele>391.20001220703</ele>
        <time>2010-11-04T14:42:07.000Z</time>
      </trkpt>
      <trkpt lat="45.03263" lon="5.34056">
        <ele>394.20001220703</ele>
        <time>2010-11-04T14:42:17.000Z</time>
      </trkpt>
      <trkpt lat="45.03261" lon="5.34055">
        <ele>394.60000610352</ele>
        <time>2010-11-04T14:42:18.000Z</time>
      </trkpt>
      <trkpt lat="45.03242" lon="5.34045">
        <ele>396.60000610352</ele>
        <time>2010-11-04T14:42:30.000Z</time>
      </trkpt>
      <trkpt lat="45.03229" lon="5.3404">
        <ele>396.60000610352</ele>
        <time>2010-11-04T14:42:36.000Z</time>
      </trkpt>
      <trkpt lat="45.03222" lon="5.34036">
        <ele>398</ele>
        <time>2010-11-04T14:42:40.000Z</time>
      </trkpt>
      <trkpt lat="45.03216" lon="5.34032">
        <ele>399.39999389648</ele>
        <time>2010-11-04T14:42:43.000Z</time>
      </trkpt>
      <trkpt lat="45.03208" lon="5.34024">
        <ele>402.79998779297</ele>
        <time>2010-11-04T14:42:48.000Z</time>
      </trkpt>
      <trkpt lat="45.03199" lon="5.34011">
        <ele>405.20001220703</ele>
        <time>2010-11-04T14:42:55.000Z</time>
      </trkpt>
      <trkpt lat="45.03186" lon="5.34003">
        <ele>407.60000610352</ele>
        <time>2010-11-04T14:43:03.000Z</time>
      </trkpt>
      <trkpt lat="45.03175" lon="5.33992">
        <ele>410.60000610352</ele>
        <time>2010-11-04T14:43:13.000Z</time>
      </trkpt>
      <trkpt lat="45.03173" lon="5.33991">
        <ele>411</ele>
        <time>2010-11-04T14:43:14.000Z</time>
      </trkpt>
      <trkpt lat="45.0316" lon="5.33983">
        <ele>413.39999389648</ele>
        <time>2010-11-04T14:43:21.000Z</time>
      </trkpt>
      <trkpt lat="45.03139" lon="5.33964">
        <ele>417.79998779297</ele>
        <time>2010-11-04T14:43:32.000Z</time>
      </trkpt>
      <trkpt lat="45.03112" lon="5.33942">
        <ele>416.79998779297</ele>
        <time>2010-11-04T14:43:42.000Z</time>
      </trkpt>
      <trkpt lat="45.0311" lon="5.3394">
        <ele>416.79998779297</ele>
        <time>2010-11-04T14:43:43.000Z</time>
      </trkpt>
      <trkpt lat="45.03093" lon="5.33926">
        <ele>417.20001220703</ele>
        <time>2010-11-04T14:43:52.000Z</time>
      </trkpt>
      <trkpt lat="45.03075" lon="5.33917">
        <ele>422</ele>
        <time>2010-11-04T14:44:02.000Z</time>
      </trkpt>
      <trkpt lat="45.03055" lon="5.3389">
        <ele>422.60000610352</ele>
        <time>2010-11-04T14:44:13.000Z</time>
      </trkpt>
      <trkpt lat="45.03045" lon="5.33882">
        <ele>423</ele>
        <time>2010-11-04T14:44:18.000Z</time>
      </trkpt>
      <trkpt lat="45.03013" lon="5.33874">
        <ele>422.60000610352</ele>
        <time>2010-11-04T14:44:33.000Z</time>
      </trkpt>
      <trkpt lat="45.03005" lon="5.33866">
        <ele>418.60000610352</ele>
        <time>2010-11-04T14:44:37.000Z</time>
      </trkpt>
      <trkpt lat="45.02992" lon="5.33854">
        <ele>417.20001220703</ele>
        <time>2010-11-04T14:44:45.000Z</time>
      </trkpt>
      <trkpt lat="45.02968" lon="5.33833">
        <ele>415.79998779297</ele>
        <time>2010-11-04T14:44:54.000Z</time>
      </trkpt>
      <trkpt lat="45.02953" lon="5.33824">
        <ele>414.79998779297</ele>
        <time>2010-11-04T14:45:00.000Z</time>
      </trkpt>
      <trkpt lat="45.02928" lon="5.33809">
        <ele>412.39999389648</ele>
        <time>2010-11-04T14:45:10.000Z</time>
      </trkpt>
      <trkpt lat="45.02895" lon="5.33771">
        <ele>404.20001220703</ele>
        <time>2010-11-04T14:45:20.000Z</time>
      </trkpt>
      <trkpt lat="45.02888" lon="5.33761">
        <ele>401.79998779297</ele>
        <time>2010-11-04T14:45:23.000Z</time>
      </trkpt>
      <trkpt lat="45.02878" lon="5.33756">
        <ele>400.39999389648</ele>
        <time>2010-11-04T14:45:28.000Z</time>
      </trkpt>
      <trkpt lat="45.02858" lon="5.33753">
        <ele>401</ele>
        <time>2010-11-04T14:45:38.000Z</time>
      </trkpt>
      <trkpt lat="45.02837" lon="5.33747">
        <ele>402.79998779297</ele>
        <time>2010-11-04T14:45:45.000Z</time>
      </trkpt>
      <trkpt lat="45.02832" lon="5.33747">
        <ele>404.79998779297</ele>
        <time>2010-11-04T14:45:48.000Z</time>
      </trkpt>
      <trkpt lat="45.02808" lon="5.33738">
        <ele>412</ele>
        <time>2010-11-04T14:45:59.000Z</time>
      </trkpt>
      <trkpt lat="45.02785" lon="5.3373">
        <ele>418.20001220703</ele>
        <time>2010-11-04T14:46:09.000Z</time>
      </trkpt>
      <trkpt lat="45.02776" lon="5.33729">
        <ele>420.60000610352</ele>
        <time>2010-11-04T14:46:12.000Z</time>
      </trkpt>
      <trkpt lat="45.02748" lon="5.33717">
        <ele>424</ele>
        <time>2010-11-04T14:46:23.000Z</time>
      </trkpt>
      <trkpt lat="45.02721" lon="5.33702">
        <ele>421.60000610352</ele>
        <time>2010-11-04T14:46:33.000Z</time>
      </trkpt>
      <trkpt lat="45.02701" lon="5.3369">
        <ele>420.20001220703</ele>
        <time>2010-11-04T14:46:41.000Z</time>
      </trkpt>
      <trkpt lat="45.0267" lon="5.3368">
        <ele>415.39999389648</ele>
        <time>2010-11-04T14:46:51.000Z</time>
      </trkpt>
      <trkpt lat="45.02647" lon="5.33668">
        <ele>413.79998779297</ele>
        <time>2010-11-04T14:47:00.000Z</time>
      </trkpt>
      <trkpt lat="45.0261" lon="5.33647">
        <ele>418.60000610352</ele>
        <time>2010-11-04T14:47:12.000Z</time>
      </trkpt>
      <trkpt lat="45.02592" lon="5.33633">
        <ele>418.20001220703</ele>
        <time>2010-11-04T14:47:21.000Z</time>
      </trkpt>
      <trkpt lat="45.02592" lon="5.33634">
        <ele>418.20001220703</ele>
        <time>2010-11-04T14:47:36.000Z</time>
      </trkpt>
      <trkpt lat="45.02572" lon="5.3361">
        <ele>419.20001220703</ele>
        <time>2010-11-04T14:47:47.000Z</time>
      </trkpt>
      <trkpt lat="45.02536" lon="5.33587">
        <ele>417.20001220703</ele>
        <time>2010-11-04T14:48:01.000Z</time>
      </trkpt>
      <trkpt lat="45.02509" lon="5.33587">
        <ele>413.39999389648</ele>
        <time>2010-11-04T14:48:12.000Z</time>
      </trkpt>
      <trkpt lat="45.02483" lon="5.33572">
        <ele>416.20001220703</ele>
        <time>2010-11-04T14:48:24.000Z</time>
      </trkpt>
      <trkpt lat="45.02452" lon="5.3356">
        <ele>416.79998779297</ele>
        <time>2010-11-04T14:48:36.000Z</time>
      </trkpt>
      <trkpt lat="45.02423" lon="5.33576">
        <ele>413.79998779297</ele>
        <time>2010-11-04T14:48:48.000Z</time>
      </trkpt>
      <trkpt lat="45.02395" lon="5.33588">
        <ele>412</ele>
        <time>2010-11-04T14:49:00.000Z</time>
      </trkpt>
      <trkpt lat="45.02384" lon="5.33586">
        <ele>413</ele>
        <time>2010-11-04T14:49:04.000Z</time>
      </trkpt>
      <trkpt lat="45.02356" lon="5.33575">
        <ele>428.20001220703</ele>
        <time>2010-11-04T14:49:17.000Z</time>
      </trkpt>
      <trkpt lat="45.02349" lon="5.33571">
        <ele>431.60000610352</ele>
        <time>2010-11-04T14:49:21.000Z</time>
      </trkpt>
      <trkpt lat="45.02326" lon="5.33541">
        <ele>436.39999389648</ele>
        <time>2010-11-04T14:49:34.000Z</time>
      </trkpt>
      <trkpt lat="45.02313" lon="5.33523">
        <ele>435.60000610352</ele>
        <time>2010-11-04T14:49:43.000Z</time>
      </trkpt>
      <trkpt lat="45.02299" lon="5.33509">
        <ele>434.60000610352</ele>
        <time>2010-11-04T14:49:50.000Z</time>
      </trkpt>
      <trkpt lat="45.02292" lon="5.33508">
        <ele>435</ele>
        <time>2010-11-04T14:49:54.000Z</time>
      </trkpt>
      <trkpt lat="45.02289" lon="5.33508">
        <ele>434.60000610352</ele>
        <time>2010-11-04T14:49:56.000Z</time>
      </trkpt>
      <trkpt lat="45.02286" lon="5.33509">
        <ele>435</ele>
        <time>2010-11-04T14:49:58.000Z</time>
      </trkpt>
      <trkpt lat="45.02275" lon="5.33512">
        <ele>437.39999389648</ele>
        <time>2010-11-04T14:50:08.000Z</time>
      </trkpt>
      <trkpt lat="45.02268" lon="5.33513">
        <ele>439.39999389648</ele>
        <time>2010-11-04T14:50:13.000Z</time>
      </trkpt>
      <trkpt lat="45.02251" lon="5.33507">
        <ele>443.60000610352</ele>
        <time>2010-11-04T14:50:26.000Z</time>
      </trkpt>
      <trkpt lat="45.02235" lon="5.33487">
        <ele>447</ele>
        <time>2010-11-04T14:50:37.000Z</time>
      </trkpt>
      <trkpt lat="45.02231" lon="5.33483">
        <ele>446.60000610352</ele>
        <time>2010-11-04T14:50:40.000Z</time>
      </trkpt>
      <trkpt lat="45.02225" lon="5.33475">
        <ele>447</ele>
        <time>2010-11-04T14:50:45.000Z</time>
      </trkpt>
      <trkpt lat="45.02222" lon="5.33468">
        <ele>449</ele>
        <time>2010-11-04T14:50:49.000Z</time>
      </trkpt>
      <trkpt lat="45.02211" lon="5.33448">
        <ele>452.79998779297</ele>
        <time>2010-11-04T14:50:59.000Z</time>
      </trkpt>
      <trkpt lat="45.02202" lon="5.33423">
        <ele>456.60000610352</ele>
        <time>2010-11-04T14:51:10.000Z</time>
      </trkpt>
      <trkpt lat="45.02185" lon="5.33415">
        <ele>462</ele>
        <time>2010-11-04T14:51:21.000Z</time>
      </trkpt>
      <trkpt lat="45.02174" lon="5.33407">
        <ele>465.39999389648</ele>
        <time>2010-11-04T14:51:27.000Z</time>
      </trkpt>
      <trkpt lat="45.02161" lon="5.33409">
        <ele>465.79998779297</ele>
        <time>2010-11-04T14:51:36.000Z</time>
      </trkpt>
      <trkpt lat="45.02141" lon="5.3339">
        <ele>466.79998779297</ele>
        <time>2010-11-04T14:51:50.000Z</time>
      </trkpt>
      <trkpt lat="45.02135" lon="5.33384">
        <ele>467.20001220703</ele>
        <time>2010-11-04T14:51:55.000Z</time>
      </trkpt>
      <trkpt lat="45.0213" lon="5.33379">
        <ele>468.20001220703</ele>
        <time>2010-11-04T14:51:59.000Z</time>
      </trkpt>
      <trkpt lat="45.02126" lon="5.33378">
        <ele>469.20001220703</ele>
        <time>2010-11-04T14:52:02.000Z</time>
      </trkpt>
      <trkpt lat="45.02126" lon="5.33384">
        <ele>468.60000610352</ele>
        <time>2010-11-04T14:52:06.000Z</time>
      </trkpt>
      <trkpt lat="45.0214" lon="5.33418">
        <ele>471.60000610352</ele>
        <time>2010-11-04T14:52:21.000Z</time>
      </trkpt>
      <trkpt lat="45.02141" lon="5.3345">
        <ele>473.39999389648</ele>
        <time>2010-11-04T14:52:35.000Z</time>
      </trkpt>
      <trkpt lat="45.02152" lon="5.3348">
        <ele>476.79998779297</ele>
        <time>2010-11-04T14:52:48.000Z</time>
      </trkpt>
      <trkpt lat="45.02159" lon="5.33498">
        <ele>480.20001220703</ele>
        <time>2010-11-04T14:52:58.000Z</time>
      </trkpt>
      <trkpt lat="45.02166" lon="5.33527">
        <ele>486.39999389648</ele>
        <time>2010-11-04T14:53:10.000Z</time>
      </trkpt>
      <trkpt lat="45.02173" lon="5.33546">
        <ele>490.39999389648</ele>
        <time>2010-11-04T14:53:18.000Z</time>
      </trkpt>
      <trkpt lat="45.02177" lon="5.33559">
        <ele>492.20001220703</ele>
        <time>2010-11-04T14:53:24.000Z</time>
      </trkpt>
      <trkpt lat="45.02179" lon="5.33564">
        <ele>493.20001220703</ele>
        <time>2010-11-04T14:53:26.000Z</time>
      </trkpt>
      <trkpt lat="45.02186" lon="5.33592">
        <ele>496</ele>
        <time>2010-11-04T14:53:38.000Z</time>
      </trkpt>
      <trkpt lat="45.02191" lon="5.33618">
        <ele>498.39999389648</ele>
        <time>2010-11-04T14:53:49.000Z</time>
      </trkpt>
      <trkpt lat="45.02191" lon="5.33624">
        <ele>499.39999389648</ele>
        <time>2010-11-04T14:53:51.000Z</time>
      </trkpt>
      <trkpt lat="45.0219" lon="5.33641">
        <ele>499.39999389648</ele>
        <time>2010-11-04T14:53:57.000Z</time>
      </trkpt>
      <trkpt lat="45.02189" lon="5.33653">
        <ele>499.39999389648</ele>
        <time>2010-11-04T14:54:02.000Z</time>
      </trkpt>
      <trkpt lat="45.02185" lon="5.33682">
        <ele>497</ele>
        <time>2010-11-04T14:54:12.000Z</time>
      </trkpt>
      <trkpt lat="45.02181" lon="5.33698">
        <ele>498</ele>
        <time>2010-11-04T14:54:19.000Z</time>
      </trkpt>
      <trkpt lat="45.02179" lon="5.33702">
        <ele>498</ele>
        <time>2010-11-04T14:54:21.000Z</time>
      </trkpt>
      <trkpt lat="45.02173" lon="5.33712">
        <ele>500</ele>
        <time>2010-11-04T14:54:29.000Z</time>
      </trkpt>
      <trkpt lat="45.02174" lon="5.33723">
        <ele>501.79998779297</ele>
        <time>2010-11-04T14:54:35.000Z</time>
      </trkpt>
      <trkpt lat="45.02179" lon="5.33731">
        <ele>503.20001220703</ele>
        <time>2010-11-04T14:54:40.000Z</time>
      </trkpt>
      <trkpt lat="45.02184" lon="5.33736">
        <ele>506.20001220703</ele>
        <time>2010-11-04T14:54:45.000Z</time>
      </trkpt>
      <trkpt lat="45.02196" lon="5.33736">
        <ele>513.79998779297</ele>
        <time>2010-11-04T14:54:56.000Z</time>
      </trkpt>
      <trkpt lat="45.02209" lon="5.33744">
        <ele>518.20001220703</ele>
        <time>2010-11-04T14:55:04.000Z</time>
      </trkpt>
      <trkpt lat="45.02211" lon="5.33751">
        <ele>520.20001220703</ele>
        <time>2010-11-04T14:55:09.000Z</time>
      </trkpt>
      <trkpt lat="45.02209" lon="5.33758">
        <ele>521.59997558594</ele>
        <time>2010-11-04T14:55:14.000Z</time>
      </trkpt>
      <trkpt lat="45.02205" lon="5.33757">
        <ele>522.59997558594</ele>
        <time>2010-11-04T14:55:17.000Z</time>
      </trkpt>
      <trkpt lat="45.02201" lon="5.33754">
        <ele>523</ele>
        <time>2010-11-04T14:55:20.000Z</time>
      </trkpt>
      <trkpt lat="45.02188" lon="5.33759">
        <ele>526.40002441406</ele>
        <time>2010-11-04T14:55:31.000Z</time>
      </trkpt>
      <trkpt lat="45.0219" lon="5.33762">
        <ele>525.79998779297</ele>
        <time>2010-11-04T14:55:35.000Z</time>
      </trkpt>
      <trkpt lat="45.02197" lon="5.33764">
        <ele>526.79998779297</ele>
        <time>2010-11-04T14:55:48.000Z</time>
      </trkpt>
      <trkpt lat="45.02194" lon="5.33763">
        <ele>523</ele>
        <time>2010-11-04T14:56:06.000Z</time>
      </trkpt>
      <trkpt lat="45.02192" lon="5.33763">
        <ele>523</ele>
        <time>2010-11-04T14:56:30.000Z</time>
      </trkpt>
      <trkpt lat="45.02192" lon="5.33764">
        <ele>522.59997558594</ele>
        <time>2010-11-04T14:56:51.000Z</time>
      </trkpt>
      <trkpt lat="45.02196" lon="5.33767">
        <ele>522.59997558594</ele>
        <time>2010-11-04T14:56:58.000Z</time>
      </trkpt>
      <trkpt lat="45.02189" lon="5.33771">
        <ele>524.40002441406</ele>
        <time>2010-11-04T14:57:07.000Z</time>
      </trkpt>
      <trkpt lat="45.02185" lon="5.33773">
        <ele>525</ele>
        <time>2010-11-04T14:57:11.000Z</time>
      </trkpt>
      <trkpt lat="45.02188" lon="5.33777">
        <ele>525.79998779297</ele>
        <time>2010-11-04T14:57:16.000Z</time>
      </trkpt>
      <trkpt lat="45.0219" lon="5.33789">
        <ele>527.40002441406</ele>
        <time>2010-11-04T14:57:24.000Z</time>
      </trkpt>
      <trkpt lat="45.0219" lon="5.33793">
        <ele>527.40002441406</ele>
        <time>2010-11-04T14:57:27.000Z</time>
      </trkpt>
      <trkpt lat="45.02192" lon="5.33798">
        <ele>529.79998779297</ele>
        <time>2010-11-04T14:57:33.000Z</time>
      </trkpt>
      <trkpt lat="45.02203" lon="5.33797">
        <ele>533</ele>
        <time>2010-11-04T14:57:42.000Z</time>
      </trkpt>
      <trkpt lat="45.02213" lon="5.33796">
        <ele>536</ele>
        <time>2010-11-04T14:57:50.000Z</time>
      </trkpt>
      <trkpt lat="45.02216" lon="5.33798">
        <ele>536.40002441406</ele>
        <time>2010-11-04T14:57:53.000Z</time>
      </trkpt>
      <trkpt lat="45.02213" lon="5.33806">
        <ele>537.79998779297</ele>
        <time>2010-11-04T14:57:59.000Z</time>
      </trkpt>
      <trkpt lat="45.02213" lon="5.33814">
        <ele>540.79998779297</ele>
        <time>2010-11-04T14:58:07.000Z</time>
      </trkpt>
      <trkpt lat="45.02215" lon="5.3382">
        <ele>544.20001220703</ele>
        <time>2010-11-04T14:58:17.000Z</time>
      </trkpt>
      <trkpt lat="45.02214" lon="5.33829">
        <ele>546.59997558594</ele>
        <time>2010-11-04T14:58:26.000Z</time>
      </trkpt>
      <trkpt lat="45.02222" lon="5.33828">
        <ele>547.59997558594</ele>
        <time>2010-11-04T14:58:33.000Z</time>
      </trkpt>
      <trkpt lat="45.0223" lon="5.33823">
        <ele>551.79998779297</ele>
        <time>2010-11-04T14:58:42.000Z</time>
      </trkpt>
      <trkpt lat="45.02243" lon="5.33816">
        <ele>558</ele>
        <time>2010-11-04T14:58:50.000Z</time>
      </trkpt>
      <trkpt lat="45.02246" lon="5.3382">
        <ele>558.59997558594</ele>
        <time>2010-11-04T14:59:07.000Z</time>
      </trkpt>
      <trkpt lat="45.02246" lon="5.33824">
        <ele>558.59997558594</ele>
        <time>2010-11-04T14:59:16.000Z</time>
      </trkpt>
      <trkpt lat="45.02244" lon="5.33826">
        <ele>558</ele>
        <time>2010-11-04T14:59:18.000Z</time>
      </trkpt>
      <trkpt lat="45.02241" lon="5.33829">
        <ele>558.59997558594</ele>
        <time>2010-11-04T14:59:21.000Z</time>
      </trkpt>
      <trkpt lat="45.02238" lon="5.33839">
        <ele>561</ele>
        <time>2010-11-04T14:59:29.000Z</time>
      </trkpt>
      <trkpt lat="45.02247" lon="5.33837">
        <ele>562.40002441406</ele>
        <time>2010-11-04T14:59:35.000Z</time>
      </trkpt>
      <trkpt lat="45.02253" lon="5.33835">
        <ele>563.79998779297</ele>
        <time>2010-11-04T14:59:39.000Z</time>
      </trkpt>
      <trkpt lat="45.02255" lon="5.3384">
        <ele>567.59997558594</ele>
        <time>2010-11-04T14:59:45.000Z</time>
      </trkpt>
      <trkpt lat="45.02242" lon="5.33857">
        <ele>573</ele>
        <time>2010-11-04T14:59:56.000Z</time>
      </trkpt>
      <trkpt lat="45.02244" lon="5.33867">
        <ele>576.40002441406</ele>
        <time>2010-11-04T15:00:09.000Z</time>
      </trkpt>
      <trkpt lat="45.0226" lon="5.3386">
        <ele>581.59997558594</ele>
        <time>2010-11-04T15:00:22.000Z</time>
      </trkpt>
      <trkpt lat="45.02275" lon="5.33857">
        <ele>585</ele>
        <time>2010-11-04T15:00:34.000Z</time>
      </trkpt>
      <trkpt lat="45.02281" lon="5.33854">
        <ele>587</ele>
        <time>2010-11-04T15:00:40.000Z</time>
      </trkpt>
      <trkpt lat="45.02283" lon="5.33865">
        <ele>588.40002441406</ele>
        <time>2010-11-04T15:00:49.000Z</time>
      </trkpt>
      <trkpt lat="45.02284" lon="5.33869">
        <ele>589.79998779297</ele>
        <time>2010-11-04T15:00:54.000Z</time>
      </trkpt>
      <trkpt lat="45.02295" lon="5.33874">
        <ele>592.59997558594</ele>
        <time>2010-11-04T15:01:05.000Z</time>
      </trkpt>
      <trkpt lat="45.02303" lon="5.33881">
        <ele>594.20001220703</ele>
        <time>2010-11-04T15:01:13.000Z</time>
      </trkpt>
      <trkpt lat="45.02306" lon="5.33889">
        <ele>595</ele>
        <time>2010-11-04T15:01:17.000Z</time>
      </trkpt>
      <trkpt lat="45.02303" lon="5.33894">
        <ele>596.59997558594</ele>
        <time>2010-11-04T15:01:24.000Z</time>
      </trkpt>
      <trkpt lat="45.02294" lon="5.33889">
        <ele>599.40002441406</ele>
        <time>2010-11-04T15:01:31.000Z</time>
      </trkpt>
      <trkpt lat="45.02291" lon="5.33889">
        <ele>600</ele>
        <time>2010-11-04T15:01:33.000Z</time>
      </trkpt>
      <trkpt lat="45.02282" lon="5.33901">
        <ele>603.20001220703</ele>
        <time>2010-11-04T15:01:42.000Z</time>
      </trkpt>
      <trkpt lat="45.02277" lon="5.33907">
        <ele>605.59997558594</ele>
        <time>2010-11-04T15:01:47.000Z</time>
      </trkpt>
      <trkpt lat="45.02261" lon="5.33926">
        <ele>607.20001220703</ele>
        <time>2010-11-04T15:02:02.000Z</time>
      </trkpt>
      <trkpt lat="45.02256" lon="5.33925">
        <ele>607.59997558594</ele>
        <time>2010-11-04T15:02:05.000Z</time>
      </trkpt>
      <trkpt lat="45.02246" lon="5.33923">
        <ele>609.59997558594</ele>
        <time>2010-11-04T15:02:14.000Z</time>
      </trkpt>
      <trkpt lat="45.02244" lon="5.3392">
        <ele>610.40002441406</ele>
        <time>2010-11-04T15:02:17.000Z</time>
      </trkpt>
      <trkpt lat="45.02233" lon="5.33914">
        <ele>612.40002441406</ele>
        <time>2010-11-04T15:02:24.000Z</time>
      </trkpt>
      <trkpt lat="45.02218" lon="5.33912">
        <ele>614.79998779297</ele>
        <time>2010-11-04T15:02:31.000Z</time>
      </trkpt>
      <trkpt lat="45.02214" lon="5.33913">
        <ele>615.79998779297</ele>
        <time>2010-11-04T15:02:34.000Z</time>
      </trkpt>
      <trkpt lat="45.02201" lon="5.33922">
        <ele>618.59997558594</ele>
        <time>2010-11-04T15:02:46.000Z</time>
      </trkpt>
      <trkpt lat="45.02178" lon="5.33916">
        <ele>622.40002441406</ele>
        <time>2010-11-04T15:02:58.000Z</time>
      </trkpt>
      <trkpt lat="45.02176" lon="5.33915">
        <ele>623</ele>
        <time>2010-11-04T15:02:59.000Z</time>
      </trkpt>
      <trkpt lat="45.02168" lon="5.33912">
        <ele>624.79998779297</ele>
        <time>2010-11-04T15:03:04.000Z</time>
      </trkpt>
      <trkpt lat="45.02156" lon="5.33906">
        <ele>626.79998779297</ele>
        <time>2010-11-04T15:03:11.000Z</time>
      </trkpt>
      <trkpt lat="45.02138" lon="5.339">
        <ele>629.59997558594</ele>
        <time>2010-11-04T15:03:23.000Z</time>
      </trkpt>
      <trkpt lat="45.0212" lon="5.33884">
        <ele>634</ele>
        <time>2010-11-04T15:03:35.000Z</time>
      </trkpt>
      <trkpt lat="45.02108" lon="5.33873">
        <ele>638.40002441406</ele>
        <time>2010-11-04T15:03:42.000Z</time>
      </trkpt>
      <trkpt lat="45.02098" lon="5.33869">
        <ele>641.79998779297</ele>
        <time>2010-11-04T15:03:52.000Z</time>
      </trkpt>
      <trkpt lat="45.02105" lon="5.33887">
        <ele>645</ele>
        <time>2010-11-04T15:04:07.000Z</time>
      </trkpt>
      <trkpt lat="45.02118" lon="5.33905">
        <ele>649</ele>
        <time>2010-11-04T15:04:18.000Z</time>
      </trkpt>
      <trkpt lat="45.02125" lon="5.33916">
        <ele>649.79998779297</ele>
        <time>2010-11-04T15:04:24.000Z</time>
      </trkpt>
      <trkpt lat="45.02129" lon="5.33922">
        <ele>650.79998779297</ele>
        <time>2010-11-04T15:04:28.000Z</time>
      </trkpt>
      <trkpt lat="45.02135" lon="5.33931">
        <ele>651.79998779297</ele>
        <time>2010-11-04T15:04:34.000Z</time>
      </trkpt>
      <trkpt lat="45.02152" lon="5.33947">
        <ele>654.59997558594</ele>
        <time>2010-11-04T15:04:46.000Z</time>
      </trkpt>
      <trkpt lat="45.02167" lon="5.33962">
        <ele>659</ele>
        <time>2010-11-04T15:04:57.000Z</time>
      </trkpt>
      <trkpt lat="45.02184" lon="5.33969">
        <ele>660.40002441406</ele>
        <time>2010-11-04T15:05:07.000Z</time>
      </trkpt>
      <trkpt lat="45.02191" lon="5.33976">
        <ele>661.40002441406</ele>
        <time>2010-11-04T15:05:13.000Z</time>
      </trkpt>
      <trkpt lat="45.02197" lon="5.3398">
        <ele>661.40002441406</ele>
        <time>2010-11-04T15:05:18.000Z</time>
      </trkpt>
      <trkpt lat="45.022" lon="5.33983">
        <ele>662</ele>
        <time>2010-11-04T15:05:21.000Z</time>
      </trkpt>
      <trkpt lat="45.02193" lon="5.33993">
        <ele>663.79998779297</ele>
        <time>2010-11-04T15:05:32.000Z</time>
      </trkpt>
      <trkpt lat="45.0219" lon="5.33993">
        <ele>664.40002441406</ele>
        <time>2010-11-04T15:05:34.000Z</time>
      </trkpt>
      <trkpt lat="45.0217" lon="5.3399">
        <ele>667.20001220703</ele>
        <time>2010-11-04T15:05:46.000Z</time>
      </trkpt>
      <trkpt lat="45.02158" lon="5.33986">
        <ele>670</ele>
        <time>2010-11-04T15:05:55.000Z</time>
      </trkpt>
      <trkpt lat="45.02159" lon="5.33989">
        <ele>670.59997558594</ele>
        <time>2010-11-04T15:05:59.000Z</time>
      </trkpt>
      <trkpt lat="45.02185" lon="5.33998">
        <ele>674</ele>
        <time>2010-11-04T15:06:14.000Z</time>
      </trkpt>
      <trkpt lat="45.02201" lon="5.34006">
        <ele>676.79998779297</ele>
        <time>2010-11-04T15:06:25.000Z</time>
      </trkpt>
      <trkpt lat="45.02213" lon="5.34019">
        <ele>679.20001220703</ele>
        <time>2010-11-04T15:06:41.000Z</time>
      </trkpt>
      <trkpt lat="45.02222" lon="5.34024">
        <ele>684.40002441406</ele>
        <time>2010-11-04T15:06:55.000Z</time>
      </trkpt>
      <trkpt lat="45.02226" lon="5.34024">
        <ele>686</ele>
        <time>2010-11-04T15:06:59.000Z</time>
      </trkpt>
      <trkpt lat="45.02245" lon="5.34028">
        <ele>690.20001220703</ele>
        <time>2010-11-04T15:07:12.000Z</time>
      </trkpt>
      <trkpt lat="45.02268" lon="5.34044">
        <ele>690.20001220703</ele>
        <time>2010-11-04T15:07:25.000Z</time>
      </trkpt>
      <trkpt lat="45.02271" lon="5.34051">
        <ele>690.79998779297</ele>
        <time>2010-11-04T15:07:29.000Z</time>
      </trkpt>
      <trkpt lat="45.02271" lon="5.34056">
        <ele>691.20001220703</ele>
        <time>2010-11-04T15:07:32.000Z</time>
      </trkpt>
      <trkpt lat="45.02262" lon="5.34053">
        <ele>694.20001220703</ele>
        <time>2010-11-04T15:07:40.000Z</time>
      </trkpt>
      <trkpt lat="45.02261" lon="5.3406">
        <ele>695.59997558594</ele>
        <time>2010-11-04T15:07:44.000Z</time>
      </trkpt>
      <trkpt lat="45.02277" lon="5.34085">
        <ele>702.79998779297</ele>
        <time>2010-11-04T15:08:00.000Z</time>
      </trkpt>
      <trkpt lat="45.02279" lon="5.34088">
        <ele>703.20001220703</ele>
        <time>2010-11-04T15:08:02.000Z</time>
      </trkpt>
      <trkpt lat="45.02284" lon="5.34096">
        <ele>703.20001220703</ele>
        <time>2010-11-04T15:08:07.000Z</time>
      </trkpt>
      <trkpt lat="45.023" lon="5.3412">
        <ele>706.20001220703</ele>
        <time>2010-11-04T15:08:19.000Z</time>
      </trkpt>
      <trkpt lat="45.02306" lon="5.34128">
        <ele>707.59997558594</ele>
        <time>2010-11-04T15:08:23.000Z</time>
      </trkpt>
      <trkpt lat="45.0231" lon="5.3414">
        <ele>708.59997558594</ele>
        <time>2010-11-04T15:08:28.000Z</time>
      </trkpt>
      <trkpt lat="45.02315" lon="5.34155">
        <ele>709.40002441406</ele>
        <time>2010-11-04T15:08:34.000Z</time>
      </trkpt>
      <trkpt lat="45.02314" lon="5.34159">
        <ele>709.40002441406</ele>
        <time>2010-11-04T15:08:38.000Z</time>
      </trkpt>
      <trkpt lat="45.02306" lon="5.3415">
        <ele>711.79998779297</ele>
        <time>2010-11-04T15:08:45.000Z</time>
      </trkpt>
      <trkpt lat="45.02295" lon="5.34132">
        <ele>717.20001220703</ele>
        <time>2010-11-04T15:08:57.000Z</time>
      </trkpt>
      <trkpt lat="45.02283" lon="5.34126">
        <ele>721</ele>
        <time>2010-11-04T15:09:05.000Z</time>
      </trkpt>
      <trkpt lat="45.02271" lon="5.34115">
        <ele>724.40002441406</ele>
        <time>2010-11-04T15:09:15.000Z</time>
      </trkpt>
      <trkpt lat="45.02267" lon="5.34112">
        <ele>724.79998779297</ele>
        <time>2010-11-04T15:09:18.000Z</time>
      </trkpt>
      <trkpt lat="45.02279" lon="5.34135">
        <ele>724.40002441406</ele>
        <time>2010-11-04T15:09:35.000Z</time>
      </trkpt>
      <trkpt lat="45.02291" lon="5.34153">
        <ele>727.79998779297</ele>
        <time>2010-11-04T15:09:48.000Z</time>
      </trkpt>
      <trkpt lat="45.02304" lon="5.34177">
        <ele>730.20001220703</ele>
        <time>2010-11-04T15:10:03.000Z</time>
      </trkpt>
      <trkpt lat="45.02307" lon="5.34205">
        <ele>735</ele>
        <time>2010-11-04T15:10:15.000Z</time>
      </trkpt>
      <trkpt lat="45.02307" lon="5.34212">
        <ele>737.40002441406</ele>
        <time>2010-11-04T15:10:18.000Z</time>
      </trkpt>
      <trkpt lat="45.02306" lon="5.34245">
        <ele>743.20001220703</ele>
        <time>2010-11-04T15:10:32.000Z</time>
      </trkpt>
      <trkpt lat="45.02306" lon="5.34253">
        <ele>744.20001220703</ele>
        <time>2010-11-04T15:10:35.000Z</time>
      </trkpt>
      <trkpt lat="45.02303" lon="5.34263">
        <ele>746.40002441406</ele>
        <time>2010-11-04T15:10:40.000Z</time>
      </trkpt>
      <trkpt lat="45.02292" lon="5.34302">
        <ele>750.40002441406</ele>
        <time>2010-11-04T15:10:54.000Z</time>
      </trkpt>
      <trkpt lat="45.02292" lon="5.34348">
        <ele>744.59997558594</ele>
        <time>2010-11-04T15:11:06.000Z</time>
      </trkpt>
      <trkpt lat="45.02303" lon="5.3436">
        <ele>742.59997558594</ele>
        <time>2010-11-04T15:11:13.000Z</time>
      </trkpt>
      <trkpt lat="45.0233" lon="5.34349">
        <ele>746</ele>
        <time>2010-11-04T15:11:27.000Z</time>
      </trkpt>
      <trkpt lat="45.02355" lon="5.34338">
        <ele>746</ele>
        <time>2010-11-04T15:11:40.000Z</time>
      </trkpt>
      <trkpt lat="45.02376" lon="5.34324">
        <ele>748</ele>
        <time>2010-11-04T15:11:54.000Z</time>
      </trkpt>
      <trkpt lat="45.02389" lon="5.34303">
        <ele>750.40002441406</ele>
        <time>2010-11-04T15:12:08.000Z</time>
      </trkpt>
      <trkpt lat="45.02396" lon="5.34293">
        <ele>751.79998779297</ele>
        <time>2010-11-04T15:12:15.000Z</time>
      </trkpt>
      <trkpt lat="45.02402" lon="5.34286">
        <ele>753.20001220703</ele>
        <time>2010-11-04T15:12:20.000Z</time>
      </trkpt>
      <trkpt lat="45.02417" lon="5.3427">
        <ele>761.40002441406</ele>
        <time>2010-11-04T15:12:30.000Z</time>
      </trkpt>
      <trkpt lat="45.02425" lon="5.34267">
        <ele>764.79998779297</ele>
        <time>2010-11-04T15:12:36.000Z</time>
      </trkpt>
      <trkpt lat="45.02446" lon="5.3427">
        <ele>768.20001220703</ele>
        <time>2010-11-04T15:12:48.000Z</time>
      </trkpt>
      <trkpt lat="45.02469" lon="5.34285">
        <ele>770.59997558594</ele>
        <time>2010-11-04T15:13:00.000Z</time>
      </trkpt>
      <trkpt lat="45.02477" lon="5.34289">
        <ele>772</ele>
        <time>2010-11-04T15:13:04.000Z</time>
      </trkpt>
      <trkpt lat="45.025" lon="5.34287">
        <ele>779.20001220703</ele>
        <time>2010-11-04T15:13:18.000Z</time>
      </trkpt>
      <trkpt lat="45.02516" lon="5.34272">
        <ele>781.59997558594</ele>
        <time>2010-11-04T15:13:28.000Z</time>
      </trkpt>
      <trkpt lat="45.02527" lon="5.34284">
        <ele>782</ele>
        <time>2010-11-04T15:13:35.000Z</time>
      </trkpt>
      <trkpt lat="45.02534" lon="5.34332">
        <ele>777.20001220703</ele>
        <time>2010-11-04T15:13:50.000Z</time>
      </trkpt>
      <trkpt lat="45.02544" lon="5.34367">
        <ele>776.40002441406</ele>
        <time>2010-11-04T15:14:01.000Z</time>
      </trkpt>
      <trkpt lat="45.02551" lon="5.3439">
        <ele>775.40002441406</ele>
        <time>2010-11-04T15:14:07.000Z</time>
      </trkpt>
      <trkpt lat="45.0258" lon="5.3442">
        <ele>769.59997558594</ele>
        <time>2010-11-04T15:14:19.000Z</time>
      </trkpt>
      <trkpt lat="45.02616" lon="5.34443">
        <ele>765.79998779297</ele>
        <time>2010-11-04T15:14:31.000Z</time>
      </trkpt>
      <trkpt lat="45.02663" lon="5.34455">
        <ele>761.79998779297</ele>
        <time>2010-11-04T15:14:46.000Z</time>
      </trkpt>
      <trkpt lat="45.02699" lon="5.34479">
        <ele>758.59997558594</ele>
        <time>2010-11-04T15:14:59.000Z</time>
      </trkpt>
      <trkpt lat="45.02727" lon="5.34518">
        <ele>753.20001220703</ele>
        <time>2010-11-04T15:15:11.000Z</time>
      </trkpt>
      <trkpt lat="45.02757" lon="5.34553">
        <ele>749</ele>
        <time>2010-11-04T15:15:24.000Z</time>
      </trkpt>
      <trkpt lat="45.02776" lon="5.34599">
        <ele>748.40002441406</ele>
        <time>2010-11-04T15:15:36.000Z</time>
      </trkpt>
      <trkpt lat="45.02802" lon="5.34638">
        <ele>744.59997558594</ele>
        <time>2010-11-04T15:15:48.000Z</time>
      </trkpt>
      <trkpt lat="45.02843" lon="5.34676">
        <ele>739.79998779297</ele>
        <time>2010-11-04T15:16:02.000Z</time>
      </trkpt>
      <trkpt lat="45.0285" lon="5.34726">
        <ele>736.79998779297</ele>
        <time>2010-11-04T15:16:12.000Z</time>
      </trkpt>
      <trkpt lat="45.02845" lon="5.34788">
        <ele>734</ele>
        <time>2010-11-04T15:16:26.000Z</time>
      </trkpt>
      <trkpt lat="45.02847" lon="5.34795">
        <ele>734</ele>
        <time>2010-11-04T15:16:38.000Z</time>
      </trkpt>
      <trkpt lat="45.02847" lon="5.34795">
        <ele>734</ele>
        <time>2010-11-04T15:16:40.000Z</time>
      </trkpt>
      <trkpt lat="45.0285" lon="5.34798">
        <ele>733.59997558594</ele>
        <time>2010-11-04T15:16:44.000Z</time>
      </trkpt>
      <trkpt lat="45.0286" lon="5.34809">
        <ele>731.59997558594</ele>
        <time>2010-11-04T15:16:49.000Z</time>
      </trkpt>
      <trkpt lat="45.02895" lon="5.34818">
        <ele>725.79998779297</ele>
        <time>2010-11-04T15:17:02.000Z</time>
      </trkpt>
      <trkpt lat="45.02933" lon="5.34824">
        <ele>722</ele>
        <time>2010-11-04T15:17:14.000Z</time>
      </trkpt>
      <trkpt lat="45.02968" lon="5.34824">
        <ele>715.79998779297</ele>
        <time>2010-11-04T15:17:25.000Z</time>
      </trkpt>
      <trkpt lat="45.02981" lon="5.34825">
        <ele>713.79998779297</ele>
        <time>2010-11-04T15:17:29.000Z</time>
      </trkpt>
      <trkpt lat="45.02993" lon="5.34818">
        <ele>714.40002441406</ele>
        <time>2010-11-04T15:17:36.000Z</time>
      </trkpt>
      <trkpt lat="45.03017" lon="5.34834">
        <ele>713.40002441406</ele>
        <time>2010-11-04T15:17:49.000Z</time>
      </trkpt>
      <trkpt lat="45.03056" lon="5.34865">
        <ele>707.59997558594</ele>
        <time>2010-11-04T15:18:04.000Z</time>
      </trkpt>
      <trkpt lat="45.03093" lon="5.34886">
        <ele>705.20001220703</ele>
        <time>2010-11-04T15:18:17.000Z</time>
      </trkpt>
      <trkpt lat="45.0314" lon="5.34911">
        <ele>702.79998779297</ele>
        <time>2010-11-04T15:18:33.000Z</time>
      </trkpt>
      <trkpt lat="45.03169" lon="5.34949">
        <ele>701.40002441406</ele>
        <time>2010-11-04T15:18:46.000Z</time>
      </trkpt>
      <trkpt lat="45.03186" lon="5.35001">
        <ele>697</ele>
        <time>2010-11-04T15:18:59.000Z</time>
      </trkpt>
      <trkpt lat="45.03205" lon="5.35061">
        <ele>690.20001220703</ele>
        <time>2010-11-04T15:19:14.000Z</time>
      </trkpt>
      <trkpt lat="45.03222" lon="5.3511">
        <ele>689.40002441406</ele>
        <time>2010-11-04T15:19:26.000Z</time>
      </trkpt>
      <trkpt lat="45.03239" lon="5.3516">
        <ele>690.79998779297</ele>
        <time>2010-11-04T15:19:38.000Z</time>
      </trkpt>
      <trkpt lat="45.03256" lon="5.35147">
        <ele>687</ele>
        <time>2010-11-04T15:19:47.000Z</time>
      </trkpt>
      <trkpt lat="45.03258" lon="5.35106">
        <ele>684</ele>
        <time>2010-11-04T15:19:57.000Z</time>
      </trkpt>
      <trkpt lat="45.03257" lon="5.35102">
        <ele>683.59997558594</ele>
        <time>2010-11-04T15:19:58.000Z</time>
      </trkpt>
      <trkpt lat="45.03266" lon="5.35082">
        <ele>683</ele>
        <time>2010-11-04T15:20:06.000Z</time>
      </trkpt>
      <trkpt lat="45.03268" lon="5.35072">
        <ele>681.20001220703</ele>
        <time>2010-11-04T15:20:10.000Z</time>
      </trkpt>
      <trkpt lat="45.03268" lon="5.35024">
        <ele>675.79998779297</ele>
        <time>2010-11-04T15:20:22.000Z</time>
      </trkpt>
      <trkpt lat="45.03265" lon="5.35007">
        <ele>674.79998779297</ele>
        <time>2010-11-04T15:20:27.000Z</time>
      </trkpt>
      <trkpt lat="45.03264" lon="5.34991">
        <ele>673</ele>
        <time>2010-11-04T15:20:32.000Z</time>
      </trkpt>
      <trkpt lat="45.03277" lon="5.34951">
        <ele>670</ele>
        <time>2010-11-04T15:20:45.000Z</time>
      </trkpt>
      <trkpt lat="45.03279" lon="5.34945">
        <ele>670</ele>
        <time>2010-11-04T15:20:47.000Z</time>
      </trkpt>
      <trkpt lat="45.03288" lon="5.34927">
        <ele>666.20001220703</ele>
        <time>2010-11-04T15:20:53.000Z</time>
      </trkpt>
      <trkpt lat="45.03299" lon="5.34882">
        <ele>660.40002441406</ele>
        <time>2010-11-04T15:21:04.000Z</time>
      </trkpt>
      <trkpt lat="45.03318" lon="5.34847">
        <ele>655.59997558594</ele>
        <time>2010-11-04T15:21:13.000Z</time>
      </trkpt>
      <trkpt lat="45.03347" lon="5.34819">
        <ele>648.40002441406</ele>
        <time>2010-11-04T15:21:23.000Z</time>
      </trkpt>
      <trkpt lat="45.03364" lon="5.34788">
        <ele>645.59997558594</ele>
        <time>2010-11-04T15:21:33.000Z</time>
      </trkpt>
      <trkpt lat="45.03369" lon="5.34775">
        <ele>644.59997558594</ele>
        <time>2010-11-04T15:21:36.000Z</time>
      </trkpt>
      <trkpt lat="45.03396" lon="5.3474">
        <ele>639.40002441406</ele>
        <time>2010-11-04T15:21:47.000Z</time>
      </trkpt>
      <trkpt lat="45.03426" lon="5.34707">
        <ele>636.40002441406</ele>
        <time>2010-11-04T15:21:59.000Z</time>
      </trkpt>
      <trkpt lat="45.03427" lon="5.34702">
        <ele>635</ele>
        <time>2010-11-04T15:22:15.000Z</time>
      </trkpt>
      <trkpt lat="45.03428" lon="5.34705">
        <ele>637</ele>
        <time>2010-11-04T15:22:36.000Z</time>
      </trkpt>
      <trkpt lat="45.03431" lon="5.34703">
        <ele>637</ele>
        <time>2010-11-04T15:22:45.000Z</time>
      </trkpt>
      <trkpt lat="45.03456" lon="5.34696">
        <ele>631.20001220703</ele>
        <time>2010-11-04T15:22:57.000Z</time>
      </trkpt>
      <trkpt lat="45.03478" lon="5.34707">
        <ele>624</ele>
        <time>2010-11-04T15:23:08.000Z</time>
      </trkpt>
      <trkpt lat="45.03488" lon="5.34712">
        <ele>621.59997558594</ele>
        <time>2010-11-04T15:23:12.000Z</time>
      </trkpt>
      <trkpt lat="45.03506" lon="5.34711">
        <ele>618.59997558594</ele>
        <time>2010-11-04T15:23:19.000Z</time>
      </trkpt>
      <trkpt lat="45.03532" lon="5.34716">
        <ele>611.40002441406</ele>
        <time>2010-11-04T15:23:31.000Z</time>
      </trkpt>
      <trkpt lat="45.0354" lon="5.34717">
        <ele>607.20001220703</ele>
        <time>2010-11-04T15:23:35.000Z</time>
      </trkpt>
      <trkpt lat="45.03546" lon="5.34715">
        <ele>605.20001220703</ele>
        <time>2010-11-04T15:23:38.000Z</time>
      </trkpt>
      <trkpt lat="45.03546" lon="5.34706">
        <ele>603.20001220703</ele>
        <time>2010-11-04T15:23:42.000Z</time>
      </trkpt>
      <trkpt lat="45.03539" lon="5.34687">
        <ele>600.40002441406</ele>
        <time>2010-11-04T15:23:48.000Z</time>
      </trkpt>
      <trkpt lat="45.03543" lon="5.34666">
        <ele>596.59997558594</ele>
        <time>2010-11-04T15:23:55.000Z</time>
      </trkpt>
      <trkpt lat="45.03565" lon="5.34662">
        <ele>587.79998779297</ele>
        <time>2010-11-04T15:24:06.000Z</time>
      </trkpt>
      <trkpt lat="45.03585" lon="5.34663">
        <ele>583.59997558594</ele>
        <time>2010-11-04T15:24:17.000Z</time>
      </trkpt>
      <trkpt lat="45.03587" lon="5.34663">
        <ele>583</ele>
        <time>2010-11-04T15:24:18.000Z</time>
      </trkpt>
      <trkpt lat="45.03594" lon="5.34662">
        <ele>580.59997558594</ele>
        <time>2010-11-04T15:24:22.000Z</time>
      </trkpt>
      <trkpt lat="45.03598" lon="5.3466">
        <ele>579.79998779297</ele>
        <time>2010-11-04T15:24:26.000Z</time>
      </trkpt>
      <trkpt lat="45.03606" lon="5.3466">
        <ele>575.79998779297</ele>
        <time>2010-11-04T15:24:31.000Z</time>
      </trkpt>
      <trkpt lat="45.03615" lon="5.34657">
        <ele>571</ele>
        <time>2010-11-04T15:24:37.000Z</time>
      </trkpt>
      <trkpt lat="45.03621" lon="5.34657">
        <ele>566.79998779297</ele>
        <time>2010-11-04T15:24:41.000Z</time>
      </trkpt>
      <trkpt lat="45.03646" lon="5.34656">
        <ele>561.40002441406</ele>
        <time>2010-11-04T15:24:51.000Z</time>
      </trkpt>
      <trkpt lat="45.03655" lon="5.34655">
        <ele>561</ele>
        <time>2010-11-04T15:24:55.000Z</time>
      </trkpt>
      <trkpt lat="45.03679" lon="5.34646">
        <ele>554.20001220703</ele>
        <time>2010-11-04T15:25:05.000Z</time>
      </trkpt>
      <trkpt lat="45.03683" lon="5.34645">
        <ele>551.79998779297</ele>
        <time>2010-11-04T15:25:07.000Z</time>
      </trkpt>
      <trkpt lat="45.0371" lon="5.34646">
        <ele>537</ele>
        <time>2010-11-04T15:25:22.000Z</time>
      </trkpt>
      <trkpt lat="45.03744" lon="5.34635">
        <ele>526.40002441406</ele>
        <time>2010-11-04T15:25:37.000Z</time>
      </trkpt>
      <trkpt lat="45.03761" lon="5.34637">
        <ele>522.59997558594</ele>
        <time>2010-11-04T15:25:43.000Z</time>
      </trkpt>
      <trkpt lat="45.03785" lon="5.34639">
        <ele>513.40002441406</ele>
        <time>2010-11-04T15:25:53.000Z</time>
      </trkpt>
      <trkpt lat="45.03815" lon="5.3464">
        <ele>509</ele>
        <time>2010-11-04T15:26:04.000Z</time>
      </trkpt>
      <trkpt lat="45.03844" lon="5.34636">
        <ele>505.20001220703</ele>
        <time>2010-11-04T15:26:14.000Z</time>
      </trkpt>
      <trkpt lat="45.0385" lon="5.34634">
        <ele>503.20001220703</ele>
        <time>2010-11-04T15:26:16.000Z</time>
      </trkpt>
      <trkpt lat="45.03874" lon="5.34631">
        <ele>497.60000610352</ele>
        <time>2010-11-04T15:26:23.000Z</time>
      </trkpt>
      <trkpt lat="45.0391" lon="5.34629">
        <ele>490.39999389648</ele>
        <time>2010-11-04T15:26:34.000Z</time>
      </trkpt>
      <trkpt lat="45.0394" lon="5.34646">
        <ele>482.60000610352</ele>
        <time>2010-11-04T15:26:42.000Z</time>
      </trkpt>
      <trkpt lat="45.03955" lon="5.34641">
        <ele>479.79998779297</ele>
        <time>2010-11-04T15:26:47.000Z</time>
      </trkpt>
      <trkpt lat="45.03986" lon="5.34631">
        <ele>469.20001220703</ele>
        <time>2010-11-04T15:26:58.000Z</time>
      </trkpt>
      <trkpt lat="45.04013" lon="5.34615">
        <ele>460.60000610352</ele>
        <time>2010-11-04T15:27:08.000Z</time>
      </trkpt>
      <trkpt lat="45.04016" lon="5.34614">
        <ele>459.60000610352</ele>
        <time>2010-11-04T15:27:09.000Z</time>
      </trkpt>
      <trkpt lat="45.04051" lon="5.34602">
        <ele>447.60000610352</ele>
        <time>2010-11-04T15:27:19.000Z</time>
      </trkpt>
      <trkpt lat="45.04066" lon="5.34605">
        <ele>443.60000610352</ele>
        <time>2010-11-04T15:27:24.000Z</time>
      </trkpt>
      <trkpt lat="45.04097" lon="5.34592">
        <ele>433.20001220703</ele>
        <time>2010-11-04T15:27:35.000Z</time>
      </trkpt>
      <trkpt lat="45.04116" lon="5.3459">
        <ele>430.79998779297</ele>
        <time>2010-11-04T15:27:40.000Z</time>
      </trkpt>
      <trkpt lat="45.04134" lon="5.34597">
        <ele>427.79998779297</ele>
        <time>2010-11-04T15:27:45.000Z</time>
      </trkpt>
      <trkpt lat="45.04147" lon="5.34595">
        <ele>424.39999389648</ele>
        <time>2010-11-04T15:27:50.000Z</time>
      </trkpt>
      <trkpt lat="45.04179" lon="5.34584">
        <ele>418.20001220703</ele>
        <time>2010-11-04T15:28:02.000Z</time>
      </trkpt>
      <trkpt lat="45.04213" lon="5.34573">
        <ele>410</ele>
        <time>2010-11-04T15:28:12.000Z</time>
      </trkpt>
      <trkpt lat="45.04219" lon="5.34572">
        <ele>407.20001220703</ele>
        <time>2010-11-04T15:28:14.000Z</time>
      </trkpt>
      <trkpt lat="45.04225" lon="5.3457">
        <ele>405.79998779297</ele>
        <time>2010-11-04T15:28:16.000Z</time>
      </trkpt>
      <trkpt lat="45.04256" lon="5.34554">
        <ele>395.60000610352</ele>
        <time>2010-11-04T15:28:28.000Z</time>
      </trkpt>
      <trkpt lat="45.04292" lon="5.34551">
        <ele>388.79998779297</ele>
        <time>2010-11-04T15:28:40.000Z</time>
      </trkpt>
      <trkpt lat="45.04302" lon="5.34554">
        <ele>386</ele>
        <time>2010-11-04T15:28:43.000Z</time>
      </trkpt>
      <trkpt lat="45.0431" lon="5.34551">
        <ele>383.60000610352</ele>
        <time>2010-11-04T15:28:47.000Z</time>
      </trkpt>
      <trkpt lat="45.04333" lon="5.34535">
        <ele>378.39999389648</ele>
        <time>2010-11-04T15:28:59.000Z</time>
      </trkpt>
      <trkpt lat="45.04356" lon="5.34539">
        <ele>376.39999389648</ele>
        <time>2010-11-04T15:29:06.000Z</time>
      </trkpt>
      <trkpt lat="45.0437" lon="5.34548">
        <ele>374</ele>
        <time>2010-11-04T15:29:11.000Z</time>
      </trkpt>
      <trkpt lat="45.04399" lon="5.34565">
        <ele>366.20001220703</ele>
        <time>2010-11-04T15:29:21.000Z</time>
      </trkpt>
      <trkpt lat="45.04426" lon="5.3457">
        <ele>357.20001220703</ele>
        <time>2010-11-04T15:29:32.000Z</time>
      </trkpt>
      <trkpt lat="45.04429" lon="5.34572">
        <ele>357.20001220703</ele>
        <time>2010-11-04T15:29:33.000Z</time>
      </trkpt>
      <trkpt lat="45.04455" lon="5.34574">
        <ele>351</ele>
        <time>2010-11-04T15:29:42.000Z</time>
      </trkpt>
      <trkpt lat="45.04457" lon="5.34574">
        <ele>350.39999389648</ele>
        <time>2010-11-04T15:29:43.000Z</time>
      </trkpt>
      <trkpt lat="45.04473" lon="5.3456">
        <ele>344.20001220703</ele>
        <time>2010-11-04T15:29:52.000Z</time>
      </trkpt>
      <trkpt lat="45.04477" lon="5.34556">
        <ele>342.79998779297</ele>
        <time>2010-11-04T15:29:54.000Z</time>
      </trkpt>
      <trkpt lat="45.04485" lon="5.34547">
        <ele>339.79998779297</ele>
        <time>2010-11-04T15:29:58.000Z</time>
      </trkpt>
      <trkpt lat="45.04506" lon="5.34515">
        <ele>330.79998779297</ele>
        <time>2010-11-04T15:30:11.000Z</time>
      </trkpt>
      <trkpt lat="45.04508" lon="5.34517">
        <ele>328.39999389648</ele>
        <time>2010-11-04T15:30:19.000Z</time>
      </trkpt>
      <trkpt lat="45.04509" lon="5.34503">
        <ele>323.60000610352</ele>
        <time>2010-11-04T15:30:25.000Z</time>
      </trkpt>
      <trkpt lat="45.04503" lon="5.34436">
        <ele>313.39999389648</ele>
        <time>2010-11-04T15:30:40.000Z</time>
      </trkpt>
      <trkpt lat="45.04518" lon="5.34421">
        <ele>309.20001220703</ele>
        <time>2010-11-04T15:30:47.000Z</time>
      </trkpt>
      <trkpt lat="45.04557" lon="5.34441">
        <ele>305.20001220703</ele>
        <time>2010-11-04T15:31:01.000Z</time>
      </trkpt>
      <trkpt lat="45.04594" lon="5.34459">
        <ele>302.79998779297</ele>
        <time>2010-11-04T15:31:14.000Z</time>
      </trkpt>
      <trkpt lat="45.0462" lon="5.34455">
        <ele>300</ele>
        <time>2010-11-04T15:31:24.000Z</time>
      </trkpt>
      <trkpt lat="45.04633" lon="5.34405">
        <ele>300.39999389648</ele>
        <time>2010-11-04T15:31:35.000Z</time>
      </trkpt>
      <trkpt lat="45.04647" lon="5.34373">
        <ele>296.20001220703</ele>
        <time>2010-11-04T15:31:44.000Z</time>
      </trkpt>
      <trkpt lat="45.0467" lon="5.34395">
        <ele>292.20001220703</ele>
        <time>2010-11-04T15:31:53.000Z</time>
      </trkpt>
      <trkpt lat="45.04686" lon="5.34409">
        <ele>288.39999389648</ele>
        <time>2010-11-04T15:31:59.000Z</time>
      </trkpt>
      <trkpt lat="45.04693" lon="5.34407">
        <ele>288.39999389648</ele>
        <time>2010-11-04T15:32:03.000Z</time>
      </trkpt>
      <trkpt lat="45.04719" lon="5.34368">
        <ele>284.20001220703</ele>
        <time>2010-11-04T15:32:15.000Z</time>
      </trkpt>
      <trkpt lat="45.04743" lon="5.34337">
        <ele>277.39999389648</ele>
        <time>2010-11-04T15:32:25.000Z</time>
      </trkpt>
      <trkpt lat="45.04757" lon="5.3433">
        <ele>273</ele>
        <time>2010-11-04T15:32:30.000Z</time>
      </trkpt>
      <trkpt lat="45.04802" lon="5.34356">
        <ele>268.20001220703</ele>
        <time>2010-11-04T15:32:43.000Z</time>
      </trkpt>
      <trkpt lat="45.04839" lon="5.34365">
        <ele>269.20001220703</ele>
        <time>2010-11-04T15:32:55.000Z</time>
      </trkpt>
      <trkpt lat="45.0488" lon="5.3434">
        <ele>269.20001220703</ele>
        <time>2010-11-04T15:33:08.000Z</time>
      </trkpt>
      <trkpt lat="45.04918" lon="5.34296">
        <ele>269.60000610352</ele>
        <time>2010-11-04T15:33:23.000Z</time>
      </trkpt>
      <trkpt lat="45.04947" lon="5.34266">
        <ele>268.79998779297</ele>
        <time>2010-11-04T15:33:36.000Z</time>
      </trkpt>
      <trkpt lat="45.04955" lon="5.34258">
        <ele>269.60000610352</ele>
        <time>2010-11-04T15:33:42.000Z</time>
      </trkpt>
      <trkpt lat="45.04964" lon="5.34257">
        <ele>270.60000610352</ele>
        <time>2010-11-04T15:33:52.000Z</time>
      </trkpt>
      <trkpt lat="45.04973" lon="5.34249">
        <ele>274</ele>
        <time>2010-11-04T15:33:58.000Z</time>
      </trkpt>
      <trkpt lat="45.05009" lon="5.3425">
        <ele>273</ele>
        <time>2010-11-04T15:34:08.000Z</time>
      </trkpt>
      <trkpt lat="45.05049" lon="5.34241">
        <ele>270.20001220703</ele>
        <time>2010-11-04T15:34:21.000Z</time>
      </trkpt>
      <trkpt lat="45.0509" lon="5.34239">
        <ele>265.79998779297</ele>
        <time>2010-11-04T15:34:34.000Z</time>
      </trkpt>
      <trkpt lat="45.0514" lon="5.34241">
        <ele>259.60000610352</ele>
        <time>2010-11-04T15:34:49.000Z</time>
      </trkpt>
      <trkpt lat="45.05169" lon="5.34262">
        <ele>253.39999389648</ele>
        <time>2010-11-04T15:34:59.000Z</time>
      </trkpt>
      <trkpt lat="45.052" lon="5.34295">
        <ele>254.39999389648</ele>
        <time>2010-11-04T15:35:12.000Z</time>
      </trkpt>
      <trkpt lat="45.05246" lon="5.34303">
        <ele>252.39999389648</ele>
        <time>2010-11-04T15:35:26.000Z</time>
      </trkpt>
      <trkpt lat="45.05294" lon="5.34278">
        <ele>248.60000610352</ele>
        <time>2010-11-04T15:35:40.000Z</time>
      </trkpt>
      <trkpt lat="45.05344" lon="5.34244">
        <ele>245.60000610352</ele>
        <time>2010-11-04T15:35:55.000Z</time>
      </trkpt>
      <trkpt lat="45.0539" lon="5.34223">
        <ele>242.80000305176</ele>
        <time>2010-11-04T15:36:08.000Z</time>
      </trkpt>
      <trkpt lat="45.05433" lon="5.34225">
        <ele>241.80000305176</ele>
        <time>2010-11-04T15:36:20.000Z</time>
      </trkpt>
      <trkpt lat="45.0545" lon="5.34253">
        <ele>240.80000305176</ele>
        <time>2010-11-04T15:36:29.000Z</time>
      </trkpt>
      <trkpt lat="45.05448" lon="5.34258">
        <ele>239.80000305176</ele>
        <time>2010-11-04T15:36:39.000Z</time>
      </trkpt>
    </trkseg>
  </trk>
</gpx>